createdAt,value
2018-06-18T00:00:21.310Z,3.90
2018-06-18T00:02:49.359Z,3.60
2018-06-18T00:05:17.460Z,3.83
2018-06-18T00:07:45.741Z,3.50
2018-06-18T00:10:13.839Z,3.53
2018-06-18T00:12:42.542Z,3.60
2018-06-18T00:15:10.594Z,3.50
2018-06-18T00:17:38.694Z,3.83
2018-06-18T00:20:06.867Z,3.90
2018-06-18T00:22:35.039Z,3.90
2018-06-18T00:25:03.483Z,3.90
2018-06-18T00:27:31.576Z,3.83
2018-06-18T00:29:59.705Z,4.25
2018-06-18T00:32:27.782Z,3.87
2018-06-18T00:34:55.898Z,4.55
2018-06-18T00:37:23.977Z,4.03
2018-06-18T00:39:52.238Z,4.20
2018-06-18T00:42:20.312Z,4.47
2018-06-18T00:44:48.354Z,4.20
2018-06-18T00:47:16.533Z,4.90
2018-06-18T00:49:44.637Z,4.20
2018-06-18T00:52:12.816Z,4.40
2018-06-18T00:54:40.877Z,3.70
2018-06-18T00:57:09.029Z,4.57
2018-06-18T00:59:37.086Z,3.73
2018-06-18T01:02:05.193Z,4.17
2018-06-18T01:04:33.260Z,5.30
2018-06-18T01:07:01.386Z,5.40
2018-06-18T01:09:29.562Z,4.43
2018-06-18T01:11:57.785Z,4.53
2018-06-18T01:14:25.854Z,3.47
2018-06-18T01:16:53.993Z,3.67
2018-06-18T01:19:22.047Z,3.65
2018-06-18T01:24:56.231Z,3.00
2018-06-18T01:27:24.474Z,3.40
2018-06-18T01:29:52.542Z,3.67
2018-06-18T01:32:20.612Z,4.00
2018-06-18T01:34:48.924Z,3.53
2018-06-18T01:37:17.011Z,3.47
2018-06-18T01:39:45.135Z,3.20
2018-06-18T01:42:13.315Z,4.10
2018-06-18T01:44:41.427Z,4.00
2018-06-18T01:47:09.690Z,4.10
2018-06-18T01:49:37.862Z,3.73
2018-06-18T01:52:05.986Z,3.80
2018-06-18T01:54:34.055Z,4.20
2018-06-18T01:57:02.145Z,3.80
2018-06-18T01:59:30.347Z,4.35
2018-06-18T02:01:58.406Z,3.60
2018-06-18T02:04:27.410Z,3.70
2018-06-18T02:06:55.502Z,4.03
2018-06-18T02:09:23.623Z,3.67
2018-06-18T02:11:51.718Z,3.67
2018-06-18T02:14:19.804Z,3.90
2018-06-18T02:16:47.910Z,3.58
2018-06-18T02:19:15.998Z,3.93
2018-06-18T02:21:45.182Z,3.53
2018-06-18T02:24:13.230Z,3.90
2018-06-18T02:26:41.327Z,4.67
2018-06-18T02:29:14.826Z,3.80
2018-06-18T02:31:48.416Z,3.60
2018-06-18T02:34:21.788Z,3.87
2018-06-18T02:36:55.221Z,3.60
2018-06-18T02:39:23.394Z,4.25
2018-06-18T02:41:51.466Z,3.97
2018-06-18T02:44:19.625Z,3.70
2018-06-18T02:46:47.749Z,3.80
2018-06-18T02:49:15.815Z,3.90
2018-06-18T02:51:44.044Z,3.80
2018-06-18T02:54:13.116Z,3.90
2018-06-18T02:56:51.094Z,3.60
2018-06-18T02:59:19.475Z,4.28
2018-06-18T03:01:47.640Z,4.78
2018-06-18T03:04:15.897Z,3.70
2018-06-18T03:06:43.947Z,3.80
2018-06-18T03:09:13.182Z,3.83
2018-06-18T03:11:41.306Z,3.80
2018-06-18T03:14:10.343Z,3.70
2018-06-18T03:16:38.426Z,4.00
2018-06-18T03:19:11.867Z,3.97
2018-06-18T03:21:45.497Z,3.53
2018-06-18T03:25:18.355Z,3.63
2018-06-18T03:27:51.719Z,3.80
2018-06-18T03:30:19.803Z,3.70
2018-06-18T03:32:48.851Z,3.37
2018-06-18T03:35:17.075Z,3.50
2018-06-18T03:37:45.126Z,3.87
2018-06-18T03:40:13.237Z,3.22
2018-06-18T03:42:41.908Z,3.67
2018-06-18T03:45:14.652Z,4.00
2018-06-18T03:47:43.206Z,3.90
2018-06-18T03:50:11.416Z,4.03
2018-06-18T03:52:39.449Z,4.07
2018-06-18T03:55:11.525Z,4.77
2018-06-18T03:57:39.680Z,4.50
2018-06-18T04:00:10.160Z,4.37
2018-06-18T04:03:04.261Z,4.60
2018-06-18T04:05:37.988Z,4.37
2018-06-18T04:08:09.587Z,3.90
2018-06-18T04:10:43.430Z,3.83
2018-06-18T04:13:11.608Z,4.13
2018-06-18T04:15:39.734Z,4.03
2018-06-18T04:18:07.890Z,3.50
2018-06-18T04:20:46.753Z,3.60
2018-06-18T04:23:14.868Z,4.00
2018-06-18T04:25:43.550Z,4.10
2018-06-18T04:28:12.003Z,4.20
2018-06-18T04:30:40.435Z,4.10
2018-06-18T04:33:08.952Z,3.33
2018-06-18T04:35:37.100Z,3.37
2018-06-18T04:38:05.214Z,3.60
2018-06-18T04:40:33.382Z,3.50
2018-06-18T04:43:07.063Z,3.83
2018-06-18T04:45:40.622Z,3.87
2018-06-18T04:48:14.094Z,3.53
2018-06-18T04:50:47.584Z,3.40
2018-06-18T04:53:15.715Z,4.10
2018-06-18T04:55:43.831Z,3.90
2018-06-18T04:58:11.996Z,3.63
2018-06-18T05:01:02.911Z,3.50
2018-06-18T05:03:30.972Z,3.50
2018-06-18T05:05:59.290Z,3.40
2018-06-18T05:08:42.318Z,3.60
2018-06-18T05:11:10.419Z,3.10
2018-06-18T05:13:38.538Z,3.53
2018-06-18T05:16:06.711Z,3.45
2018-06-18T05:18:34.924Z,3.30
2018-06-18T05:21:03.199Z,2.97
2018-06-18T05:23:31.278Z,2.80
2018-06-18T05:26:00.709Z,2.97
2018-06-18T05:28:28.932Z,2.70
2018-06-18T05:30:57.624Z,3.03
2018-06-18T05:33:25.785Z,3.20
2018-06-18T05:35:53.850Z,2.87
2018-06-18T05:38:31.939Z,2.80
2018-06-18T05:41:00.438Z,3.17
2018-06-18T05:43:29.017Z,2.70
2018-06-18T05:45:57.062Z,2.75
2018-06-18T05:48:25.198Z,3.47
2018-06-18T05:50:53.295Z,2.40
2018-06-18T05:53:21.452Z,2.80
2018-06-18T05:55:49.642Z,3.00
2018-06-18T05:58:18.072Z,3.00
2018-06-18T06:00:46.251Z,3.63
2018-06-18T06:03:14.358Z,3.07
2018-06-18T06:05:42.646Z,3.00
2018-06-18T06:08:10.958Z,3.10
2018-06-18T06:10:39.287Z,2.67
2018-06-18T06:13:08.512Z,2.83
2018-06-18T06:15:36.590Z,3.00
2018-06-18T06:18:04.911Z,3.43
2018-06-18T06:20:33.490Z,3.10
2018-06-18T06:23:01.597Z,3.15
2018-06-18T06:25:29.844Z,3.20
2018-06-18T06:27:57.931Z,2.60
2018-06-18T06:30:26.119Z,2.97
2018-06-18T06:32:54.252Z,3.00
2018-06-18T06:35:26.550Z,2.50
2018-06-18T06:37:55.615Z,3.08
2018-06-18T06:40:23.986Z,2.90
2018-06-18T06:42:52.167Z,2.77
2018-06-18T06:45:20.787Z,3.10
2018-06-18T06:47:48.934Z,3.37
2018-06-18T06:50:17.398Z,2.47
2018-06-18T06:52:45.508Z,2.87
2018-06-18T06:55:14.266Z,2.65
2018-06-18T06:57:42.326Z,2.97
2018-06-18T07:00:10.406Z,3.17
2018-06-18T07:02:38.629Z,2.93
2018-06-18T07:05:06.699Z,3.43
2018-06-18T07:07:34.904Z,2.83
2018-06-18T07:10:03.222Z,3.37
2018-06-18T07:12:31.834Z,3.45
2018-06-18T07:14:59.902Z,3.47
2018-06-18T07:17:28.558Z,2.70
2018-06-18T07:19:56.654Z,3.17
2018-06-18T07:22:24.863Z,2.58
2018-06-18T07:24:53.010Z,2.83
2018-06-18T07:27:21.078Z,3.05
2018-06-18T07:29:49.147Z,3.10
2018-06-18T07:32:17.249Z,3.17
2018-06-18T07:34:45.363Z,3.60
2018-06-18T07:37:14.267Z,2.67
2018-06-18T07:39:42.357Z,3.23
2018-06-18T07:42:10.454Z,3.10
2018-06-18T07:44:38.546Z,2.97
2018-06-18T07:47:06.775Z,3.70
2018-06-18T07:49:35.054Z,3.07
2018-06-18T07:52:03.167Z,3.53
2018-06-18T07:54:31.242Z,3.10
2018-06-18T07:56:59.525Z,3.30
2018-06-18T07:59:27.650Z,2.70
2018-06-18T08:01:55.702Z,3.00
2018-06-18T08:04:24.286Z,3.15
2018-06-18T08:06:52.536Z,5.53
2018-06-18T08:09:20.640Z,3.60
2018-06-18T08:11:48.734Z,2.65
2018-06-18T08:14:16.822Z,2.80
2018-06-18T08:16:44.882Z,2.60
2018-06-18T08:19:13.110Z,3.13
2018-06-18T08:21:41.168Z,2.97
2018-06-18T08:24:09.304Z,2.70
2018-06-18T08:26:37.423Z,2.23
2018-06-18T08:29:05.519Z,2.90
2018-06-18T08:31:33.636Z,2.40
2018-06-18T08:34:01.821Z,2.70
2018-06-18T08:36:31.573Z,2.10
2018-06-18T08:38:59.695Z,2.50
2018-06-18T08:41:27.871Z,2.42
2018-06-18T08:43:56.115Z,2.43
2018-06-18T08:46:24.218Z,2.52
2018-06-18T08:48:57.691Z,2.77
2018-06-18T08:51:31.126Z,2.83
2018-06-18T08:54:04.685Z,2.40
2018-06-18T08:56:38.079Z,2.70
2018-06-18T08:59:11.596Z,2.67
2018-06-18T09:01:41.874Z,2.57
2018-06-18T09:04:15.234Z,2.40
2018-06-18T09:06:43.526Z,2.30
2018-06-18T09:09:11.614Z,2.97
2018-06-18T09:11:39.710Z,2.23
2018-06-18T09:14:07.830Z,2.00
2018-06-18T09:16:35.991Z,2.70
2018-06-18T09:19:04.111Z,2.10
2018-06-18T09:21:32.420Z,2.30
2018-06-18T09:24:00.606Z,2.30
2018-06-18T09:26:29.450Z,2.27
2018-06-18T09:28:57.578Z,2.60
2018-06-18T09:31:25.891Z,2.30
2018-06-18T09:33:54.045Z,2.17
2018-06-18T09:36:22.114Z,2.30
2018-06-18T09:38:50.222Z,3.10
2018-06-18T09:41:18.299Z,2.43
2018-06-18T09:43:46.410Z,2.40
2018-06-18T09:46:14.944Z,2.70
2018-06-18T09:48:48.480Z,2.30
2018-06-18T09:51:21.906Z,2.03
2018-06-18T09:53:55.334Z,2.55
2018-06-18T09:56:29.428Z,2.47
2018-06-18T09:59:02.906Z,1.90
2018-06-18T10:01:32.510Z,2.02
2018-06-18T10:04:01.427Z,2.05
2018-06-18T10:06:31.014Z,2.17
2018-06-18T10:09:02.042Z,2.13
2018-06-18T10:11:30.260Z,3.00
2018-06-18T10:13:58.462Z,2.43
2018-06-18T10:16:26.692Z,2.43
2018-06-18T10:18:54.771Z,2.90
2018-06-18T10:21:22.848Z,2.23
2018-06-18T10:23:51.187Z,2.47
2018-06-18T10:26:19.379Z,2.30
2018-06-18T10:28:47.471Z,2.57
2018-06-18T10:31:15.534Z,2.60
2018-06-18T10:33:49.079Z,2.47
2018-06-18T10:36:22.592Z,2.50
2018-06-18T10:38:56.102Z,2.73
2018-06-18T10:41:29.849Z,2.63
2018-06-18T10:43:58.255Z,2.65
2018-06-18T10:46:26.441Z,2.40
2018-06-18T10:48:54.622Z,2.10
2018-06-18T10:51:22.667Z,2.10
2018-06-18T10:53:50.855Z,2.70
2018-06-18T10:56:19.002Z,2.70
2018-06-18T10:58:47.459Z,2.50
2018-06-18T11:01:21.499Z,2.63
2018-06-18T11:03:50.733Z,2.13
2018-06-18T11:06:24.046Z,2.33
2018-06-18T11:08:52.186Z,2.77
2018-06-18T11:11:20.318Z,2.23
2018-06-18T11:13:48.606Z,2.87
2018-06-18T11:16:16.811Z,2.63
2018-06-18T11:18:50.782Z,2.63
2018-06-18T11:21:24.147Z,2.93
2018-06-18T11:23:57.689Z,2.30
2018-06-18T11:26:31.243Z,2.83
2018-06-18T11:28:59.275Z,2.50
2018-06-18T11:31:27.521Z,2.60
2018-06-18T11:33:55.621Z,2.33
2018-06-18T11:36:23.688Z,2.20
2018-06-18T11:38:51.916Z,2.60
2018-06-18T11:41:20.055Z,2.60
2018-06-18T11:43:48.262Z,2.40
2018-06-18T11:46:16.357Z,2.30
2018-06-18T11:48:44.440Z,2.50
2018-06-18T11:51:12.599Z,2.70
2018-06-18T11:53:40.741Z,2.50
2018-06-18T11:56:08.845Z,2.80
2018-06-18T11:58:42.294Z,2.90
2018-06-18T12:01:15.810Z,2.67
2018-06-18T12:03:49.396Z,2.67
2018-06-18T12:06:22.864Z,2.20
2018-06-18T12:08:56.215Z,2.50
2018-06-18T12:11:24.307Z,2.92
2018-06-18T12:13:52.462Z,2.50
2018-06-18T12:16:20.651Z,2.50
2018-06-18T12:18:48.730Z,2.50
2018-06-18T12:21:16.812Z,2.60
2018-06-18T12:23:45.753Z,2.27
2018-06-18T12:26:13.890Z,2.73
2018-06-18T12:28:42.148Z,2.60
2018-06-18T12:31:10.258Z,3.13
2018-06-18T12:33:38.587Z,2.00
2018-06-18T12:36:08.189Z,2.50
2018-06-18T12:38:36.277Z,2.67
2018-06-18T12:41:04.545Z,2.63
2018-06-18T12:43:36.042Z,2.40
2018-06-18T12:46:09.559Z,2.60
2018-06-18T12:48:43.107Z,2.80
2018-06-18T12:51:16.511Z,2.67
2018-06-18T12:53:49.947Z,2.40
2018-06-18T12:56:23.427Z,2.60
2018-06-18T12:58:51.539Z,2.40
2018-06-18T13:01:20.889Z,2.60
2018-06-18T13:03:49.302Z,2.70
2018-06-18T13:06:17.508Z,3.07
2018-06-18T13:08:45.943Z,2.60
2018-06-18T13:11:14.118Z,2.40
2018-06-18T13:13:44.836Z,2.40
2018-06-18T13:16:13.023Z,2.43
2018-06-18T13:18:41.153Z,2.40
2018-06-18T13:21:09.279Z,2.43
2018-06-18T13:23:37.359Z,2.30
2018-06-18T13:26:05.479Z,2.50
2018-06-18T13:28:33.640Z,2.00
2018-06-18T13:31:01.707Z,2.07
2018-06-18T13:33:29.866Z,1.90
2018-06-18T13:35:57.949Z,2.20
2018-06-18T13:38:31.368Z,2.02
2018-06-18T13:41:05.110Z,1.90
2018-06-18T13:43:38.529Z,1.83
2018-06-18T13:46:13.375Z,1.77
2018-06-18T13:48:49.111Z,2.20
2018-06-18T13:51:17.272Z,2.07
2018-06-18T13:53:46.523Z,2.10
2018-06-18T13:56:14.920Z,1.97
2018-06-18T13:58:43.048Z,1.80
2018-06-18T14:01:12.185Z,2.40
2018-06-18T14:03:40.303Z,2.00
2018-06-18T14:06:08.455Z,1.90
2018-06-18T14:08:36.562Z,2.00
2018-06-18T14:11:04.763Z,2.30
2018-06-18T14:13:33.212Z,2.53
2018-06-18T14:16:02.622Z,2.37
2018-06-18T14:18:30.890Z,2.50
2018-06-18T14:20:59.120Z,1.90
2018-06-18T14:23:27.199Z,2.00
2018-06-18T14:25:55.438Z,2.30
2018-06-18T14:28:23.568Z,2.27
2018-06-18T14:30:57.255Z,2.50
2018-06-18T14:33:30.786Z,2.17
2018-06-18T14:36:04.150Z,2.30
2018-06-18T14:38:38.621Z,2.12
2018-06-18T14:41:07.215Z,2.53
2018-06-18T14:43:35.493Z,2.30
2018-06-18T14:46:03.742Z,2.00
2018-06-18T14:48:32.016Z,1.83
2018-06-18T14:51:00.117Z,1.90
2018-06-18T14:53:28.248Z,2.27
2018-06-18T14:56:01.805Z,2.47
2018-06-18T14:58:29.900Z,2.05
2018-06-18T15:00:58.015Z,2.37
2018-06-18T15:03:26.103Z,2.20
2018-06-18T15:05:54.249Z,2.25
2018-06-18T15:08:22.354Z,2.52
2018-06-18T15:10:53.275Z,2.40
2018-06-18T15:13:21.433Z,2.33
2018-06-18T15:15:55.048Z,2.17
2018-06-18T15:18:23.119Z,2.05
2018-06-18T15:20:52.903Z,2.30
2018-06-18T15:23:21.001Z,2.17
2018-06-18T15:25:50.666Z,2.30
2018-06-18T15:28:18.792Z,2.03
2018-06-18T15:30:48.239Z,2.00
2018-06-18T15:33:17.413Z,1.77
2018-06-18T15:35:45.523Z,1.90
2018-06-18T15:38:13.727Z,1.80
2018-06-18T15:40:42.341Z,1.93
2018-06-18T15:43:10.442Z,2.40
2018-06-18T15:45:38.746Z,2.00
2018-06-18T15:48:06.881Z,2.00
2018-06-18T15:50:34.958Z,1.90
2018-06-18T15:53:03.167Z,2.00
2018-06-18T15:55:31.340Z,1.82
2018-06-18T15:57:59.487Z,1.90
2018-06-18T16:00:27.641Z,2.60
2018-06-18T16:02:55.769Z,2.12
2018-06-18T16:05:23.903Z,2.05
2018-06-18T16:07:52.173Z,2.22
2018-06-18T16:10:20.414Z,4.63
2018-06-18T16:12:48.662Z,2.00
2018-06-18T16:15:16.961Z,1.87
2018-06-18T16:17:45.101Z,2.10
2018-06-18T16:20:13.329Z,2.57
2018-06-18T16:22:41.553Z,2.27
2018-06-18T16:25:09.624Z,2.30
2018-06-18T16:27:37.881Z,1.80
2018-06-18T16:30:06.060Z,2.23
2018-06-18T16:32:34.334Z,2.40
2018-06-18T16:35:02.518Z,2.30
2018-06-18T16:37:30.643Z,2.20
2018-06-18T16:39:59.061Z,2.17
2018-06-18T16:42:27.282Z,2.30
2018-06-18T16:44:55.402Z,2.60
2018-06-18T16:47:23.588Z,2.67
2018-06-18T16:49:51.715Z,2.30
2018-06-18T16:52:19.816Z,2.60
2018-06-18T16:54:48.063Z,2.20
2018-06-18T17:05:51.106Z,2.30
2018-06-18T17:08:19.206Z,2.13
2018-06-18T17:10:47.324Z,2.50
2018-06-18T17:13:15.398Z,2.50
2018-06-18T17:15:43.659Z,2.03
2018-06-18T17:18:11.704Z,2.80
2018-06-18T17:20:39.827Z,2.67
2018-06-18T17:23:08.043Z,2.50
2018-06-18T17:25:36.150Z,2.40
2018-06-18T17:28:04.256Z,2.70
2018-06-18T17:30:32.354Z,3.00
2018-06-18T17:33:00.419Z,2.70
2018-06-18T17:35:28.511Z,2.17
2018-06-18T17:37:56.915Z,2.35
2018-06-18T17:40:24.992Z,2.80
2018-06-18T17:42:53.378Z,2.58
2018-06-18T17:45:21.538Z,2.47
2018-06-18T17:47:49.624Z,2.43
2018-06-18T17:50:17.703Z,2.47
2018-06-18T17:52:45.802Z,2.20
2018-06-18T17:55:14.158Z,2.00
2018-06-18T17:57:42.242Z,2.00
2018-06-18T18:00:10.368Z,2.20
2018-06-18T18:02:38.577Z,2.50
2018-06-18T18:05:06.679Z,2.30
2018-06-18T18:07:34.787Z,3.03
2018-06-18T18:10:03.155Z,2.57
2018-06-18T18:12:31.333Z,2.17
2018-06-18T18:14:59.546Z,2.07
2018-06-18T18:17:27.720Z,2.30
2018-06-18T18:19:55.862Z,2.40
2018-06-18T18:22:27.660Z,2.60
2018-06-18T18:24:56.969Z,2.53
2018-06-18T18:27:26.737Z,2.47
2018-06-18T18:29:54.967Z,2.33
2018-06-18T18:32:23.075Z,2.30
2018-06-18T18:34:51.264Z,2.40
2018-06-18T18:37:19.361Z,2.47
2018-06-18T18:39:47.619Z,2.40
2018-06-18T18:42:15.782Z,2.43
2018-06-18T18:44:44.158Z,2.33
2018-06-18T18:47:12.375Z,2.20
2018-06-18T18:49:41.742Z,2.13
2018-06-18T18:52:09.997Z,2.40
2018-06-18T18:55:53.383Z,2.40
2018-06-18T18:58:48.944Z,2.27
2018-06-18T19:01:17.733Z,2.92
2018-06-18T19:03:48.061Z,2.90
2018-06-18T19:06:16.238Z,2.37
2018-06-18T19:08:44.612Z,2.40
2018-06-18T19:11:12.863Z,3.97
2018-06-18T19:13:41.144Z,5.90
2018-06-18T19:16:09.814Z,2.50
2018-06-18T19:18:39.355Z,2.30
2018-06-18T19:21:09.038Z,3.07
2018-06-18T19:23:37.625Z,2.77
2018-06-18T19:26:05.887Z,2.67
2018-06-18T19:28:36.098Z,2.42
2018-06-18T19:31:15.401Z,2.83
2018-06-18T19:33:50.076Z,4.00
2018-06-18T19:36:18.383Z,5.03
2018-06-18T19:38:46.510Z,3.30
2018-06-18T19:41:14.630Z,4.10
2018-06-18T19:43:43.039Z,3.58
2018-06-18T19:46:11.159Z,3.30
2018-06-18T19:48:46.596Z,3.73
2018-06-18T19:51:14.727Z,3.35
2018-06-18T19:53:42.850Z,2.80
2018-06-18T19:56:11.034Z,3.50
2018-06-18T19:58:39.222Z,2.90
2018-06-18T20:01:08.826Z,3.60
2018-06-18T20:03:36.931Z,3.47
2018-06-18T20:06:05.110Z,3.20
2018-06-18T20:08:33.430Z,4.20
2018-06-18T20:11:01.594Z,3.33
2018-06-18T20:13:29.684Z,3.57
2018-06-18T20:15:57.754Z,2.90
2018-06-18T20:18:25.885Z,2.90
2018-06-18T20:20:54.195Z,2.67
2018-06-18T20:23:24.236Z,2.98
2018-06-18T20:26:10.553Z,2.55
2018-06-18T20:28:38.885Z,3.27
2018-06-18T20:31:07.171Z,3.33
2018-06-18T20:33:38.019Z,3.87
2018-06-18T20:36:10.751Z,3.07
2018-06-18T20:38:38.879Z,3.10
2018-06-18T20:41:07.766Z,3.00
2018-06-18T20:43:49.876Z,3.20
2018-06-18T20:46:18.290Z,2.58
2018-06-18T20:48:46.516Z,3.23
2018-06-18T20:51:14.697Z,3.30
2018-06-18T20:53:42.811Z,3.10
2018-06-18T20:56:11.135Z,3.30
2018-06-18T20:58:39.223Z,2.90
2018-06-18T21:01:07.600Z,2.90
2018-06-18T21:03:35.685Z,2.97
2018-06-18T21:06:03.922Z,3.20
2018-06-18T21:08:32.036Z,3.53
2018-06-18T21:11:00.243Z,3.37
2018-06-18T21:13:28.502Z,3.00
2018-06-18T21:15:56.901Z,3.20
2018-06-18T21:18:25.006Z,2.90
2018-06-18T21:20:53.301Z,3.10
2018-06-18T21:23:21.399Z,3.10
2018-06-18T21:25:49.697Z,2.93
2018-06-18T21:28:18.427Z,3.30
2018-06-18T21:30:46.813Z,3.20
2018-06-18T21:33:15.449Z,2.90
2018-06-18T21:35:43.638Z,2.90
2018-06-18T21:38:11.723Z,3.40
2018-06-18T21:40:39.970Z,2.90
2018-06-18T21:43:08.139Z,3.20
2018-06-18T21:45:36.285Z,3.97
2018-06-18T21:48:04.839Z,3.37
2018-06-18T21:50:33.026Z,3.27
2018-06-18T21:53:01.182Z,3.37
2018-06-18T21:55:29.253Z,3.10
2018-06-18T21:57:58.578Z,3.10
2018-06-18T22:00:35.542Z,3.70
2018-06-18T22:03:03.626Z,3.43
2018-06-18T22:05:31.882Z,4.05
2018-06-18T22:08:00.382Z,3.00
2018-06-18T22:10:28.486Z,3.20
2018-06-18T22:12:56.806Z,3.20
2018-06-18T22:15:25.228Z,3.90
2018-06-18T22:17:53.587Z,3.00
2018-06-18T22:20:21.789Z,3.27
2018-06-18T22:22:50.197Z,3.30
2018-06-18T22:25:19.272Z,3.95
2018-06-18T22:27:47.747Z,3.50
2018-06-18T22:30:15.980Z,3.50
2018-06-18T22:32:44.144Z,3.10
2018-06-18T22:35:12.309Z,3.33
2018-06-18T22:37:40.489Z,3.97
2018-06-18T22:40:08.723Z,3.30
2018-06-18T22:42:37.278Z,3.37
2018-06-18T22:45:07.354Z,3.50
2018-06-18T22:47:35.591Z,4.10
2018-06-18T22:50:03.739Z,3.90
2018-06-18T22:52:31.923Z,3.13
2018-06-18T22:55:00.100Z,3.40
2018-06-18T22:57:28.234Z,3.77
2018-06-18T22:59:56.422Z,4.10
2018-06-18T23:02:28.226Z,3.50
2018-06-18T23:04:56.643Z,4.00
2018-06-18T23:07:24.861Z,3.60
2018-06-18T23:09:53.077Z,3.80
2018-06-18T23:12:23.220Z,3.70
2018-06-18T23:14:51.498Z,3.77
2018-06-18T23:17:19.727Z,3.90
2018-06-18T23:19:48.853Z,3.73
2018-06-18T23:22:17.105Z,4.30
2018-06-18T23:24:46.271Z,4.20
2018-06-18T23:27:14.379Z,4.03
2018-06-18T23:29:42.549Z,3.53
2018-06-18T23:32:11.445Z,4.10
2018-06-18T23:34:39.856Z,4.40
2018-06-18T23:37:08.226Z,4.07
2018-06-18T23:39:36.436Z,4.25
2018-06-18T23:42:04.771Z,4.30
2018-06-18T23:44:32.935Z,4.17
2018-06-18T23:47:01.094Z,4.37
2018-06-18T23:49:29.405Z,3.90
2018-06-18T23:51:57.885Z,4.05
2018-06-18T23:54:26.009Z,3.80
2018-06-18T23:56:54.201Z,3.60
2018-06-18T23:59:22.520Z,4.30
